Royalton, KY

9:34 AM EDT on March 30, 2015 (GMT -0400)
MiddleCreek | | Change Station
CLOSE
Current Station
Personal Weather Station
Location: Prestonsburg, KY
Elevation: 699 ft
Nearby Weather Stations

Elev 699 ft 37.65 °N, 82.88 °W | Updated 8 minutes ago

Overcast
Overcast
55.4 °F
Feels Like 55.4 °F
N
2.7
Wind Variable Wind from West

Today
High -- | Low -- °F
--% Chance of Precip.
Yesterday
High -- | Low -- °F
Precip. -- in
7:20 AM 7:52 PM
Waxing Gibbous, 79% visible
Pressure 30.09 in
Visibility 10.0 miles
Clouds Few 900 ft
Scattered Clouds 1700 ft
Mostly Cloudy 4700 ft
Dew Point 43 °F
Humidity 62%
Rainfall 0.02 in
Snow Depth Not available.
UV 1 out of 12
Pollen 7.80 out of 12
Air Quality Not available.
Flu Activity Not available.
SPECI KJKL 301315Z AUTO 30007KT 270V330 10SM FEW009 SCT017 BKN047 09/06 A3009 RMK AO2 T00890056

More Conditions Fewer Conditions

Pressure 30.09 in
Visibility 10.0 miles
Clouds Few 900 ft
Scattered Clouds 1700 ft
Mostly Cloudy 4700 ft
Dew Point 43 °F
Humidity 62%
Rainfall 0.02 in
Snow Depth Not available.
UV 1 out of 12
Pollen 7.80 out of 12
Air Quality Not available.
Flu Activity Not available.
SPECI KJKL 301315Z AUTO 30007KT 270V330 10SM FEW009 SCT017 BKN047 09/06 A3009 RMK AO2 T00890056

More Conditions Fewer Conditions

10-Day Weather Forecast

Almanac

Astronomy

Mar. 30, 2015 Rise Set
Actual Time
Civil Twilight
Nautical Twilight
Astronomical Twilight
Moon
Length of Visible Light
Length of Day
Tomorrow will be .
, % of the Moon is Illuminated

Today's Extremes

State Highs State Lows

Community

WunderPhotos

Upload Photos

1,809,493 photos uploaded!

WunderBlogs® & News

Nearby

Air Quality

  Air Quality AQ Index Pollutant
Not available.

Snow Depth

Station Depth Elevation

Earthquake Activity

City Distance Mag. Time & Date
Minimum magnitude displayed is 2.5.

Coastal Water Temperatures

Place Temperature

Stations

Nearby Weather Stations

Station Location Temp. Windchill Dew Point Humidity Wind Precip. Elev Updated Type